createdAt,value
2018-04-11T00:00:28.622Z,2.73
2018-04-11T00:02:56.139Z,6.40
2018-04-11T00:05:24.462Z,5.00
2018-04-11T00:07:51.969Z,5.83
2018-04-11T00:10:20.242Z,3.10
2018-04-11T00:12:48.534Z,3.20
2018-04-11T00:15:16.841Z,6.63
2018-04-11T00:17:44.939Z,5.73
2018-04-11T00:20:12.522Z,6.23
2018-04-11T00:22:40.083Z,5.93
2018-04-11T00:25:07.638Z,3.57
2018-04-11T00:27:35.162Z,4.23
2018-04-11T00:30:02.687Z,4.50
2018-04-11T00:32:30.811Z,5.20
2018-04-11T00:34:58.395Z,4.60
2018-04-11T00:37:26.726Z,7.50
2018-04-11T00:39:54.273Z,6.53
2018-04-11T00:42:21.785Z,4.23
2018-04-11T00:44:50.079Z,8.57
2018-04-11T00:47:18.358Z,5.83
2018-04-11T00:49:46.646Z,4.70
2018-04-11T00:52:14.177Z,4.53
2018-04-11T00:54:42.460Z,5.50
2018-04-11T00:57:10.778Z,4.57
2018-04-11T00:59:38.295Z,6.77
2018-04-11T01:02:06.693Z,5.53
2018-04-11T01:04:34.200Z,4.10
2018-04-11T01:07:01.721Z,7.83
2018-04-11T01:09:29.250Z,4.43
2018-04-11T01:11:57.529Z,5.90
2018-04-11T01:14:25.804Z,4.53
2018-04-11T01:16:54.091Z,3.77
2018-04-11T01:19:21.613Z,6.17
2018-04-11T01:21:49.154Z,4.40
2018-04-11T01:24:16.697Z,3.57
2018-04-11T01:26:44.213Z,2.50
2018-04-11T01:29:12.490Z,3.20
2018-04-11T01:31:40.771Z,3.87
2018-04-11T01:34:09.708Z,3.07
2018-04-11T01:36:37.952Z,1.87
2018-04-11T01:39:05.459Z,2.63
2018-04-11T01:41:32.988Z,3.40
2018-04-11T01:44:00.543Z,2.50
2018-04-11T01:46:28.062Z,3.37
2018-04-11T01:48:56.347Z,7.70
2018-04-11T01:51:24.622Z,6.93
2018-04-11T01:53:52.905Z,4.43
2018-04-11T01:56:21.178Z,5.27
2018-04-11T01:58:49.460Z,3.00
2018-04-11T02:01:16.968Z,3.17
2018-04-11T02:03:44.478Z,2.87
2018-04-11T02:06:12.004Z,4.43
2018-04-11T02:08:39.528Z,3.27
2018-04-11T02:11:07.029Z,4.83
2018-04-11T02:13:34.534Z,4.57
2018-04-11T02:16:02.059Z,3.87
2018-04-11T02:18:30.350Z,3.10
2018-04-11T02:20:57.871Z,3.13
2018-04-11T02:23:25.383Z,2.93
2018-04-11T02:25:53.815Z,4.70
2018-04-11T02:28:21.374Z,4.20
2018-04-11T02:30:48.893Z,2.57
2018-04-11T02:33:16.531Z,3.27
2018-04-11T02:35:44.048Z,2.30
2018-04-11T02:38:11.568Z,3.60
2018-04-11T02:40:39.185Z,3.50
2018-04-11T02:43:07.651Z,3.03
2018-04-11T02:45:35.171Z,1.67
2018-04-11T02:48:02.782Z,3.27
2018-04-11T02:50:31.066Z,3.60
2018-04-11T02:52:59.341Z,4.00
2018-04-11T02:55:27.621Z,3.60
2018-04-11T02:57:55.894Z,3.97
2018-04-11T03:00:24.167Z,3.73
2018-04-11T03:02:52.452Z,2.67
2018-04-11T03:05:21.010Z,2.93
2018-04-11T03:07:50.188Z,3.80
2018-04-11T03:10:17.701Z,3.70
2018-04-11T03:12:45.214Z,2.60
2018-04-11T03:15:12.736Z,3.60
2018-04-11T03:17:40.241Z,4.07
2018-04-11T03:20:07.758Z,3.87
2018-04-11T03:22:35.288Z,3.93
2018-04-11T03:25:04.222Z,3.73
2018-04-11T03:27:31.777Z,2.83
2018-04-11T03:29:59.576Z,4.13
2018-04-11T03:32:27.898Z,4.23
2018-04-11T03:34:55.422Z,4.10
2018-04-11T03:37:23.722Z,4.30
2018-04-11T03:39:51.230Z,4.20
2018-04-11T03:42:18.760Z,4.50
2018-04-11T03:44:47.203Z,4.60
2018-04-11T03:47:15.587Z,5.10
2018-04-11T03:49:43.858Z,4.43
2018-04-11T03:52:12.150Z,6.43
2018-04-11T03:54:39.662Z,5.23
2018-04-11T03:57:07.186Z,6.00
2018-04-11T03:59:34.934Z,7.33
2018-04-11T04:02:02.576Z,4.20
2018-04-11T04:04:30.851Z,4.53
2018-04-11T04:06:59.153Z,3.00
2018-04-11T04:09:26.662Z,4.33
2018-04-11T04:11:54.215Z,3.63
2018-04-11T04:14:33.862Z,4.90
2018-04-11T04:17:13.429Z,4.67
2018-04-11T04:19:53.577Z,3.90
2018-04-11T04:22:21.902Z,5.00
2018-04-11T04:24:49.421Z,5.13
2018-04-11T04:27:17.695Z,6.50
2018-04-11T04:29:45.971Z,4.37
2018-04-11T04:32:14.244Z,7.47
2018-04-11T04:34:42.532Z,6.00
2018-04-11T04:37:10.898Z,5.27
2018-04-11T04:39:39.194Z,3.90
2018-04-11T04:42:07.511Z,5.13
2018-04-11T04:44:35.838Z,4.27
2018-04-11T04:47:05.090Z,4.20
2018-04-11T04:49:33.413Z,4.87
2018-04-11T04:52:01.920Z,6.70
2018-04-11T04:54:29.436Z,5.80
2018-04-11T04:56:57.709Z,8.10
2018-04-11T04:59:25.392Z,8.50
2018-04-11T05:01:53.779Z,5.57
2018-04-11T05:04:22.091Z,6.57
2018-04-11T05:06:49.605Z,9.93
2018-04-11T05:09:17.889Z,4.93
2018-04-11T05:11:46.165Z,6.93
2018-04-11T05:14:14.465Z,5.67
2018-04-11T05:16:41.987Z,6.50
2018-04-11T05:19:10.282Z,6.23
2018-04-11T05:21:38.056Z,10.33
2018-04-11T05:24:05.578Z,6.37
2018-04-11T05:26:34.619Z,9.93
2018-04-11T05:29:02.254Z,11.33
2018-04-11T05:31:31.414Z,10.87
2018-04-11T05:33:58.940Z,10.83
2018-04-11T05:36:26.558Z,9.00
2018-04-11T05:38:54.860Z,6.33
2018-04-11T05:41:22.434Z,7.30
2018-04-11T05:43:50.119Z,4.77
2018-04-11T05:46:17.641Z,7.57
2018-04-11T05:48:45.899Z,6.80
2018-04-11T05:51:14.197Z,4.47
2018-04-11T05:53:42.307Z,9.43
2018-04-11T05:56:09.823Z,10.80
2018-04-11T05:58:37.343Z,11.00
2018-04-11T06:01:04.922Z,7.13
2018-04-11T06:03:32.460Z,5.30
2018-04-11T06:06:00.100Z,3.43
2018-04-11T06:08:27.843Z,4.43
2018-04-11T06:10:55.394Z,4.53
2018-04-11T06:13:22.929Z,4.87
2018-04-11T06:15:51.201Z,4.33
2018-04-11T06:18:19.473Z,6.03
2018-04-11T06:20:48.041Z,4.00
2018-04-11T06:23:15.552Z,4.33
2018-04-11T06:25:43.095Z,5.43
2018-04-11T06:28:10.991Z,6.33
2018-04-11T06:30:38.525Z,7.87
2018-04-11T06:33:06.042Z,6.77
2018-04-11T06:35:33.577Z,11.40
2018-04-11T06:38:01.170Z,9.93
2018-04-11T06:40:28.829Z,6.63
2018-04-11T06:42:56.356Z,9.40
2018-04-11T06:45:23.881Z,10.93
2018-04-11T06:47:51.414Z,5.67
2018-04-11T06:50:20.162Z,9.27
2018-04-11T06:52:47.777Z,10.30
2018-04-11T06:55:15.347Z,9.10
2018-04-11T06:57:43.616Z,7.83
2018-04-11T07:00:11.200Z,9.07
2018-04-11T07:02:38.916Z,8.40
2018-04-11T07:05:06.436Z,7.90
2018-04-11T07:07:33.981Z,6.67
2018-04-11T07:10:01.499Z,8.20
2018-04-11T07:12:29.784Z,7.83
2018-04-11T07:14:58.089Z,4.83
2018-04-11T07:17:25.619Z,8.17
2018-04-11T07:19:53.934Z,7.50
2018-04-11T07:22:21.483Z,8.03
2018-04-11T07:24:49.036Z,7.13
2018-04-11T07:27:16.563Z,7.23
2018-04-11T07:29:44.842Z,7.40
2018-04-11T07:32:13.256Z,4.97
2018-04-11T07:34:40.854Z,7.37
2018-04-11T07:37:08.391Z,7.37
2018-04-11T07:39:36.008Z,6.93
2018-04-11T07:42:04.308Z,6.67
2018-04-11T07:44:31.940Z,6.53
2018-04-11T07:47:00.221Z,7.37
2018-04-11T07:49:28.502Z,7.07
2018-04-11T07:51:56.816Z,7.13
2018-04-11T07:54:24.337Z,4.93
2018-04-11T07:56:51.890Z,6.80
2018-04-11T07:59:20.277Z,5.67
2018-04-11T08:01:48.593Z,5.60
2018-04-11T08:04:16.112Z,5.50
2018-04-11T08:06:44.411Z,6.53
2018-04-11T08:09:12.044Z,6.70
2018-04-11T08:11:39.683Z,6.47
2018-04-11T08:14:07.210Z,6.27
2018-04-11T08:16:34.811Z,6.70
2018-04-11T08:19:03.103Z,6.77
2018-04-11T08:21:31.396Z,6.30
2018-04-11T08:23:58.435Z,5.23
2018-04-11T08:26:26.720Z,4.40
2018-04-11T08:28:54.371Z,4.90
2018-04-11T08:31:22.658Z,5.90
2018-04-11T08:33:50.166Z,4.20
2018-04-11T08:36:17.689Z,5.97
2018-04-11T08:38:44.977Z,5.50
2018-04-11T08:41:12.696Z,5.40
2018-04-11T08:43:40.257Z,5.03
2018-04-11T08:46:07.785Z,5.90
2018-04-11T08:48:36.121Z,6.33
2018-04-11T08:51:03.774Z,6.13
2018-04-11T08:53:31.289Z,5.47
2018-04-11T08:55:59.562Z,4.27
2018-04-11T08:58:27.842Z,4.90
2018-04-11T09:00:56.130Z,4.80
2018-04-11T09:03:23.667Z,3.50
2018-04-11T09:05:51.960Z,5.53
2018-04-11T09:08:20.282Z,5.13
2018-04-11T09:10:47.802Z,3.97
2018-04-11T09:13:15.382Z,4.27
2018-04-11T09:15:42.901Z,5.17
2018-04-11T09:18:11.201Z,4.33
2018-04-11T09:20:38.888Z,4.37
2018-04-11T09:23:06.411Z,4.10
2018-04-11T09:25:34.778Z,3.57
2018-04-11T09:28:03.174Z,3.17
2018-04-11T09:30:31.459Z,2.60
2018-04-11T09:32:58.996Z,2.20
2018-04-11T09:35:26.795Z,2.40
2018-04-11T09:37:54.524Z,2.40
2018-04-11T09:40:23.434Z,3.10
2018-04-11T09:42:51.022Z,3.17
2018-04-11T09:45:19.401Z,3.37
2018-04-11T09:47:46.917Z,3.53
2018-04-11T09:50:15.267Z,3.67
2018-04-11T09:52:44.050Z,3.50
2018-04-11T09:55:11.584Z,2.93
2018-04-11T09:57:39.135Z,3.50
2018-04-11T10:00:07.000Z,3.80
2018-04-11T10:02:36.575Z,4.40
2018-04-11T10:05:05.715Z,4.07
2018-04-11T10:07:33.331Z,4.17
2018-04-11T10:10:01.701Z,4.00
2018-04-11T10:12:30.000Z,3.63
2018-04-11T10:14:57.560Z,3.90
2018-04-11T10:17:25.271Z,3.83
2018-04-11T10:19:52.842Z,4.17
2018-04-11T10:22:20.382Z,4.27
2018-04-11T10:24:47.919Z,3.27
2018-04-11T10:27:15.651Z,2.93
2018-04-11T10:29:43.980Z,2.60
2018-04-11T10:32:11.502Z,2.47
2018-04-11T10:34:39.141Z,2.23
2018-04-11T10:37:08.323Z,2.80
2018-04-11T10:39:35.985Z,2.83
2018-04-11T10:42:03.532Z,2.53
2018-04-11T10:44:31.070Z,2.87
2018-04-11T10:46:58.681Z,2.70
2018-04-11T10:49:26.997Z,2.27
2018-04-11T10:51:54.527Z,2.20
2018-04-11T10:54:22.821Z,2.30
2018-04-11T10:56:50.368Z,1.97
2018-04-11T10:59:18.911Z,2.00
2018-04-11T11:01:46.430Z,2.30
2018-04-11T11:04:14.574Z,2.20
2018-04-11T11:06:42.854Z,2.50
2018-04-11T11:09:11.151Z,2.80
2018-04-11T11:11:38.727Z,2.50
2018-04-11T11:14:06.475Z,2.30
2018-04-11T11:16:36.587Z,2.07
2018-04-11T11:19:04.117Z,1.97
2018-04-11T11:21:32.409Z,2.40
2018-04-11T11:24:00.697Z,3.27
2018-04-11T11:26:28.220Z,2.80
2018-04-11T11:28:56.111Z,3.00
2018-04-11T11:31:24.398Z,2.83
2018-04-11T11:33:51.935Z,3.30
2018-04-11T11:36:20.221Z,2.60
2018-04-11T11:38:48.528Z,2.80
2018-04-11T11:41:16.043Z,2.93
2018-04-11T11:43:44.525Z,2.43
2018-04-11T11:46:12.831Z,2.33
2018-04-11T11:48:41.067Z,2.40
2018-04-11T11:51:09.352Z,2.63
2018-04-11T11:53:36.871Z,2.77
2018-04-11T11:56:04.388Z,2.40
2018-04-11T11:58:32.950Z,2.37
2018-04-11T12:01:00.470Z,2.33
2018-04-11T12:03:27.987Z,2.33
2018-04-11T12:05:56.305Z,2.27
2018-04-11T12:08:23.835Z,2.43
2018-04-11T12:10:51.347Z,2.37
2018-04-11T12:13:18.883Z,2.37
2018-04-11T12:15:46.401Z,2.30
2018-04-11T12:18:14.718Z,2.10
2018-04-11T12:20:42.267Z,2.40
2018-04-11T12:23:09.829Z,2.17
2018-04-11T12:25:37.467Z,2.10
2018-04-11T12:28:05.088Z,2.17
2018-04-11T12:30:32.614Z,1.20
2018-04-11T12:33:00.156Z,1.30
2018-04-11T12:35:27.717Z,0.90
2018-04-11T12:37:55.251Z,1.40
2018-04-11T12:40:23.576Z,1.23
2018-04-11T12:42:51.155Z,1.40
2018-04-11T12:45:18.747Z,1.40
2018-04-11T12:47:47.136Z,1.97
2018-04-11T12:50:14.679Z,1.67
2018-04-11T12:52:42.956Z,1.17
2018-04-11T12:55:11.318Z,1.73
2018-04-11T12:57:38.865Z,1.10
2018-04-11T13:00:06.438Z,1.07
2018-04-11T13:02:33.963Z,1.30
2018-04-11T13:05:02.326Z,1.00
2018-04-11T13:07:29.939Z,1.53
2018-04-11T13:09:57.486Z,1.43
2018-04-11T13:12:25.877Z,1.10
2018-04-11T13:14:53.475Z,2.20
2018-04-11T13:17:21.118Z,2.27
2018-04-11T13:19:49.427Z,2.30
2018-04-11T13:22:16.956Z,2.37
2018-04-11T13:24:45.237Z,2.40
2018-04-11T13:27:13.225Z,2.40
2018-04-11T13:29:40.812Z,2.00
2018-04-11T13:32:08.308Z,2.07
2018-04-11T13:34:36.594Z,2.40
2018-04-11T13:37:04.896Z,1.60
2018-04-11T13:39:32.490Z,2.33
2018-04-11T13:42:00.015Z,2.40
2018-04-11T13:44:27.540Z,2.00
2018-04-11T13:46:55.890Z,2.30
2018-04-11T13:49:23.615Z,2.50
2018-04-11T13:51:51.138Z,2.60
2018-04-11T13:54:19.421Z,2.40
2018-04-11T13:56:47.703Z,2.30
2018-04-11T13:59:16.474Z,2.30
2018-04-11T14:01:44.768Z,2.13
2018-04-11T14:04:13.050Z,1.90
2018-04-11T14:06:40.598Z,2.27
2018-04-11T14:09:08.899Z,1.70
2018-04-11T14:11:36.428Z,1.80
2018-04-11T14:14:04.724Z,1.60
2018-04-11T14:16:32.255Z,1.70
2018-04-11T14:18:59.880Z,1.60
2018-04-11T14:21:27.397Z,1.67
2018-04-11T14:23:55.049Z,1.60
2018-04-11T14:26:23.951Z,1.23
2018-04-11T14:28:52.194Z,1.03
2018-04-11T14:31:19.752Z,1.20
2018-04-11T14:33:48.277Z,1.30
2018-04-11T14:36:15.920Z,1.70
2018-04-11T14:38:44.200Z,1.97
2018-04-11T14:41:12.481Z,1.70
2018-04-11T14:43:40.911Z,1.47
2018-04-11T14:46:08.504Z,1.60
2018-04-11T14:48:36.792Z,1.80
2018-04-11T14:51:05.071Z,1.20
2018-04-11T14:53:37.463Z,1.20
2018-04-11T14:56:05.199Z,0.87
2018-04-11T14:58:32.734Z,1.03
2018-04-11T15:01:00.252Z,1.20
2018-04-11T15:03:27.892Z,1.00
2018-04-11T15:05:55.433Z,1.70
2018-04-11T15:08:23.725Z,1.77
2018-04-11T15:10:52.016Z,1.33
2018-04-11T15:13:19.533Z,1.63
2018-04-11T15:15:47.225Z,1.90
2018-04-11T15:18:14.752Z,2.00
2018-04-11T15:20:42.280Z,2.00
2018-04-11T15:23:09.833Z,1.93
2018-04-11T15:25:37.779Z,2.17
2018-04-11T15:28:05.347Z,2.50
2018-04-11T15:30:32.873Z,2.40
2018-04-11T15:33:01.152Z,3.23
2018-04-11T15:35:29.467Z,3.13
2018-04-11T15:37:57.090Z,3.67
2018-04-11T15:40:25.547Z,3.60
2018-04-11T15:42:53.127Z,4.23
2018-04-11T15:45:21.985Z,4.30
2018-04-11T15:47:49.543Z,4.13
2018-04-11T15:50:17.072Z,3.93
2018-04-11T15:52:44.647Z,3.90
2018-04-11T15:55:12.405Z,3.70
2018-04-11T15:57:39.936Z,3.53
2018-04-11T16:07:01.141Z,3.77
2018-04-11T16:09:28.665Z,3.80
2018-04-11T16:11:56.194Z,4.13
2018-04-11T16:14:24.687Z,5.30
2018-04-11T16:16:52.980Z,4.87
2018-04-11T16:19:20.526Z,4.73
2018-04-11T16:21:49.447Z,5.10
2018-04-11T16:24:16.978Z,5.20
2018-04-11T16:26:44.874Z,5.47
2018-04-11T16:29:12.423Z,5.40
2018-04-11T16:31:40.142Z,5.53
2018-04-11T16:34:08.781Z,5.63
2018-04-11T16:36:36.324Z,5.00
2018-04-11T16:39:03.860Z,5.17
2018-04-11T16:41:32.191Z,4.80
2018-04-11T16:43:59.835Z,5.30
2018-04-11T16:46:27.857Z,4.23
2018-04-11T16:48:55.475Z,3.47
2018-04-11T16:51:23.018Z,2.90
2018-04-11T16:53:50.657Z,2.43
2018-04-11T16:56:18.203Z,2.30
2018-04-11T16:58:46.507Z,2.50
2018-04-11T17:01:14.246Z,2.30
2018-04-11T17:03:42.658Z,2.37
2018-04-11T17:06:10.190Z,2.07
2018-04-11T17:08:39.396Z,2.70
2018-04-11T17:11:06.914Z,2.37
2018-04-11T17:13:34.498Z,2.20
2018-04-11T17:16:02.898Z,2.23
2018-04-11T17:18:30.415Z,2.77
2018-04-11T17:21:10.610Z,2.00
2018-04-11T17:23:50.040Z,2.83
2018-04-11T17:26:30.278Z,2.70
2018-04-11T17:29:10.386Z,2.13
2018-04-11T17:31:37.980Z,2.47
2018-04-11T17:34:05.608Z,2.70
2018-04-11T17:36:33.154Z,2.57
2018-04-11T17:39:00.786Z,2.67
2018-04-11T17:41:29.084Z,2.83
2018-04-11T17:43:56.626Z,2.63
2018-04-11T17:46:24.911Z,3.17
2018-04-11T17:48:52.444Z,3.00
2018-04-11T17:51:20.761Z,3.50
2018-04-11T17:53:48.305Z,3.23
2018-04-11T17:56:15.880Z,3.37
2018-04-11T17:58:43.411Z,3.47
2018-04-11T18:01:11.724Z,3.33
2018-04-11T18:03:39.287Z,3.47
2018-04-11T18:06:06.849Z,3.57
2018-04-11T18:08:34.380Z,3.50
2018-04-11T18:11:02.030Z,3.60
2018-04-11T18:13:30.323Z,3.67
2018-04-11T18:15:58.055Z,3.73
2018-04-11T18:18:25.535Z,3.57
2018-04-11T18:20:55.644Z,3.87
2018-04-11T18:23:29.462Z,4.17
2018-04-11T18:25:57.044Z,4.50
2018-04-11T18:28:24.619Z,4.63
2018-04-11T18:30:52.972Z,4.10
2018-04-11T18:33:20.518Z,4.50
2018-04-11T18:35:48.062Z,4.40
2018-04-11T18:38:16.353Z,4.33
2018-04-11T18:40:44.674Z,4.07
2018-04-11T18:43:12.289Z,4.67
2018-04-11T18:45:40.649Z,4.97
2018-04-11T18:48:08.995Z,4.67
2018-04-11T18:50:36.562Z,4.93
2018-04-11T18:53:04.108Z,5.10
2018-04-11T18:55:31.763Z,4.63
2018-04-11T18:57:59.314Z,4.87
2018-04-11T19:00:26.845Z,4.93
2018-04-11T19:02:55.147Z,5.20
2018-04-11T19:05:22.752Z,5.10
2018-04-11T19:07:50.468Z,5.40
2018-04-11T19:10:18.723Z,4.83
2018-04-11T19:12:46.289Z,4.50
2018-04-11T19:15:14.018Z,4.77
2018-04-11T19:17:41.535Z,5.10
2018-04-11T19:20:09.050Z,5.27
2018-04-11T19:22:37.347Z,5.00
2018-04-11T19:25:04.942Z,5.60
2018-04-11T19:27:32.461Z,5.07
2018-04-11T19:29:59.985Z,5.43
2018-04-11T19:32:29.034Z,5.47
2018-04-11T19:34:56.586Z,5.53
2018-04-11T19:37:24.195Z,5.57
2018-04-11T19:39:52.536Z,3.20
2018-04-11T19:42:20.107Z,5.87
2018-04-11T19:44:48.546Z,6.00
2018-04-11T19:47:16.928Z,6.20
2018-04-11T19:49:45.341Z,6.67
2018-04-11T19:52:12.875Z,6.70
2018-04-11T19:54:40.433Z,6.77
2018-04-11T19:57:07.990Z,6.23
2018-04-11T19:59:35.562Z,7.20
2018-04-11T20:02:03.097Z,6.80
2018-04-11T20:04:31.520Z,6.10
2018-04-11T20:06:59.326Z,7.47
2018-04-11T20:09:27.683Z,6.17
2018-04-11T20:11:55.246Z,6.47
2018-04-11T20:14:22.815Z,6.83
2018-04-11T20:16:51.341Z,6.97
2018-04-11T20:19:18.876Z,6.97
2018-04-11T20:21:47.775Z,7.37
2018-04-11T20:24:15.294Z,6.97
2018-04-11T20:26:42.880Z,8.30
2018-04-11T20:29:11.223Z,7.17
2018-04-11T20:31:38.752Z,7.23
2018-04-11T20:34:06.285Z,7.43
2018-04-11T20:36:34.585Z,7.13
2018-04-11T20:39:02.107Z,7.47
2018-04-11T20:41:30.455Z,7.10
2018-04-11T20:43:58.579Z,7.07
2018-04-11T20:46:26.131Z,7.30
2018-04-11T20:48:55.024Z,7.50
2018-04-11T20:51:22.593Z,7.30
2018-04-11T20:53:50.133Z,7.03
2018-04-11T20:56:19.283Z,7.27
2018-04-11T20:58:46.826Z,7.10
2018-04-11T21:01:14.362Z,7.33
2018-04-11T21:03:41.920Z,6.87
2018-04-11T21:06:09.949Z,7.10
2018-04-11T21:08:37.567Z,7.20
2018-04-11T21:11:05.114Z,7.37
2018-04-11T21:13:32.631Z,6.57
2018-04-11T21:16:01.227Z,7.17
2018-04-11T21:18:29.574Z,6.60
2018-04-11T21:20:57.103Z,6.20
2018-04-11T21:23:24.686Z,6.83
2018-04-11T21:25:52.714Z,6.93
2018-04-11T21:28:20.346Z,7.00
2018-04-11T21:30:47.883Z,6.70
2018-04-11T21:33:15.421Z,6.87
2018-04-11T21:35:43.569Z,6.40
2018-04-11T21:38:11.873Z,6.87
2018-04-11T21:40:39.453Z,3.77
2018-04-11T21:43:06.999Z,6.87
2018-04-11T21:45:35.459Z,6.40
2018-04-11T21:48:02.990Z,6.33
2018-04-11T21:50:31.286Z,6.73
2018-04-11T21:52:58.859Z,6.60
2018-04-11T21:55:26.383Z,5.30
2018-04-11T21:57:54.839Z,3.43
2018-04-11T22:00:23.164Z,5.10
2018-04-11T22:02:50.698Z,5.03
2018-04-11T22:05:18.997Z,3.40
2018-04-11T22:07:46.524Z,2.77
2018-04-11T22:10:14.120Z,3.97
2018-04-11T22:12:41.666Z,6.27
2018-04-11T22:15:10.033Z,3.90
2018-04-11T22:17:37.544Z,4.00
2018-04-11T22:20:05.277Z,3.43
2018-04-11T22:22:33.502Z,2.87
2018-04-11T22:25:01.032Z,2.57
2018-04-11T22:27:28.553Z,3.37
2018-04-11T22:29:56.128Z,5.77
2018-04-11T22:32:23.671Z,4.93
2018-04-11T22:34:51.966Z,3.43
2018-04-11T22:37:19.510Z,3.00
2018-04-11T22:39:48.544Z,2.33
2018-04-11T22:42:16.072Z,2.37
2018-04-11T22:44:44.043Z,2.90
2018-04-11T22:47:11.570Z,2.47
2018-04-11T22:49:39.155Z,2.50
2018-04-11T22:52:07.484Z,2.47
2018-04-11T22:54:35.021Z,2.67
2018-04-11T22:57:02.576Z,4.87
2018-04-11T22:59:30.205Z,6.13
2018-04-11T23:01:57.762Z,3.93
2018-04-11T23:04:26.080Z,3.43
2018-04-11T23:06:53.682Z,6.93
2018-04-11T23:09:21.314Z,3.50
2018-04-11T23:11:48.853Z,2.90
2018-04-11T23:14:17.082Z,2.50
2018-04-11T23:16:44.639Z,2.67
2018-04-11T23:19:12.347Z,5.57
2018-04-11T23:21:39.891Z,5.57
2018-04-11T23:24:08.205Z,5.47
2018-04-11T23:26:35.721Z,4.87
2018-04-11T23:29:04.235Z,3.00
2018-04-11T23:31:31.762Z,2.40
2018-04-11T23:34:00.061Z,3.10
2018-04-11T23:36:27.595Z,5.03
2018-04-11T23:38:55.950Z,5.77
2018-04-11T23:41:23.568Z,6.23
2018-04-11T23:43:51.105Z,5.73
2018-04-11T23:46:18.624Z,5.90
2018-04-11T23:48:46.154Z,5.90
2018-04-11T23:51:14.111Z,5.73
2018-04-11T23:53:41.686Z,7.07
2018-04-11T23:56:09.230Z,5.83
2018-04-11T23:58:36.788Z,4.67
